Terminal Aerodrome Forecast
Issued by NWS

Home | Current Version | Previous Version | Text Only | Print | Product List | Glossary On
Versions: 1 2 3 4 5 6 7 8 9 10 11 12 13 14 15 16 17 18 19 20 21 22 23
177
FTUS44 KMAF 080305 AAA
TAFPEQ
TAF AMD
KPEQ 080305Z 0803/0824 05005KT P6SM OVC100
     FM080400 05017G27KT P6SM OVC010
     FM080600 05021G30KT P6SM OVC012
      TEMPO 0808/0810 3SM -RASN BR
     FM081000 04020G27KT 3SM -SN BR OVC015
     FM081800 06012G20KT P6SM OVC025=

USA.gov is the U.S. government's official web portal to all federal, state and local government web resources and services.